createdAt,value
2017-09-25T00:01:37.201Z,11.45
2017-09-25T00:04:04.934Z,11.47
2017-09-25T00:06:34.528Z,11.47
2017-09-25T00:09:02.205Z,11.45
2017-09-25T00:11:31.091Z,11.51
2017-09-25T00:14:00.040Z,11.49
2017-09-25T00:16:27.706Z,11.49
2017-09-25T00:18:55.430Z,11.56
2017-09-25T00:21:23.106Z,11.56
2017-09-25T00:23:51.117Z,11.54
2017-09-25T00:26:18.872Z,11.52
2017-09-25T00:28:46.571Z,11.50
2017-09-25T00:31:14.321Z,11.58
2017-09-25T00:33:42.079Z,11.59
2017-09-25T00:36:09.864Z,11.57
2017-09-25T00:38:37.554Z,11.63
2017-09-25T00:41:05.370Z,11.62
2017-09-25T00:43:33.053Z,11.63
2017-09-25T00:46:00.850Z,11.58
2017-09-25T00:48:28.569Z,11.55
2017-09-25T00:50:56.392Z,11.52
2017-09-25T00:53:35.957Z,11.54
2017-09-25T00:56:03.723Z,11.60
2017-09-25T00:58:31.458Z,11.52
2017-09-25T01:01:10.865Z,11.46
2017-09-25T01:03:50.480Z,11.58
2017-09-25T01:06:27.820Z,11.54
2017-09-25T01:08:55.532Z,11.52
2017-09-25T01:11:23.378Z,11.50
2017-09-25T01:13:51.149Z,11.46
2017-09-25T01:16:18.867Z,11.50
2017-09-25T01:18:46.596Z,11.40
2017-09-25T01:21:15.149Z,11.47
2017-09-25T01:23:43.063Z,11.50
2017-09-25T01:26:10.826Z,11.47
2017-09-25T01:28:38.508Z,11.40
2017-09-25T01:31:06.304Z,11.42
2017-09-25T01:33:34.039Z,11.45
2017-09-25T01:36:01.931Z,11.36
2017-09-25T01:38:29.631Z,11.27
2017-09-25T01:40:57.362Z,11.26
2017-09-25T01:43:25.129Z,11.27
2017-09-25T01:45:52.876Z,11.28
2017-09-25T01:48:20.621Z,11.24
2017-09-25T01:50:49.035Z,11.05
2017-09-25T01:53:17.736Z,11.04
2017-09-25T01:55:45.433Z,11.01
2017-09-25T01:58:13.285Z,11.04
2017-09-25T02:00:40.997Z,11.09
2017-09-25T02:03:08.709Z,11.02
2017-09-25T02:05:36.524Z,11.13
2017-09-25T02:08:04.349Z,11.05
2017-09-25T02:10:32.094Z,11.07
2017-09-25T02:12:59.831Z,11.07
2017-09-25T02:15:27.503Z,11.23
2017-09-25T02:17:55.369Z,11.30
2017-09-25T02:20:23.157Z,11.23
2017-09-25T02:22:50.844Z,11.24
2017-09-25T02:25:18.836Z,11.15
2017-09-25T02:27:46.532Z,11.15
2017-09-25T02:30:14.293Z,11.23
2017-09-25T02:32:42.040Z,11.22
2017-09-25T02:35:09.821Z,11.17
2017-09-25T02:37:37.605Z,11.18
2017-09-25T02:40:05.391Z,11.11
2017-09-25T02:42:33.327Z,11.10
2017-09-25T02:45:01.048Z,11.21
2017-09-25T02:47:28.803Z,11.13
2017-09-25T02:49:56.609Z,11.09
2017-09-25T02:52:25.346Z,10.84
2017-09-25T02:54:53.099Z,10.57
2017-09-25T02:57:20.800Z,10.51
2017-09-25T02:59:48.702Z,10.78
2017-09-25T03:02:16.402Z,10.87
2017-09-25T03:04:44.327Z,10.78
2017-09-25T03:07:12.146Z,10.73
2017-09-25T03:09:40.012Z,10.64
2017-09-25T03:12:08.171Z,10.63
2017-09-25T03:14:35.918Z,10.55
2017-09-25T03:17:03.666Z,10.54
2017-09-25T03:19:31.375Z,10.54
2017-09-25T03:21:59.193Z,10.58
2017-09-25T03:24:26.969Z,10.63
2017-09-25T03:26:54.683Z,10.62
2017-09-25T03:29:22.369Z,10.45
2017-09-25T03:31:50.132Z,10.39
2017-09-25T03:34:17.856Z,10.54
2017-09-25T03:36:45.582Z,10.60
2017-09-25T03:39:13.265Z,10.55
2017-09-25T03:41:41.071Z,10.59
2017-09-25T03:44:09.750Z,10.66
2017-09-25T03:46:37.523Z,10.72
2017-09-25T03:49:05.220Z,10.76
2017-09-25T03:51:32.999Z,10.71
2017-09-25T03:54:00.719Z,10.70
2017-09-25T03:56:28.410Z,10.71
2017-09-25T03:58:56.103Z,10.68
2017-09-25T04:01:23.881Z,10.71
2017-09-25T04:03:52.450Z,10.70
2017-09-25T04:06:20.167Z,10.74
2017-09-25T04:08:47.892Z,10.76
2017-09-25T04:11:15.563Z,10.73
2017-09-25T04:13:43.293Z,10.61
2017-09-25T04:16:11.042Z,10.62
2017-09-25T04:18:38.802Z,10.65
2017-09-25T04:21:07.332Z,10.66
2017-09-25T04:23:35.029Z,10.69
2017-09-25T04:26:02.812Z,10.82
2017-09-25T04:28:32.185Z,10.71
2017-09-25T04:31:00.844Z,10.64
2017-09-25T04:33:28.589Z,10.59
2017-09-25T04:35:56.297Z,10.55
2017-09-25T04:38:24.010Z,10.59
2017-09-25T04:40:51.687Z,10.71
2017-09-25T04:43:19.426Z,10.72
2017-09-25T04:45:47.175Z,10.65
2017-09-25T04:48:15.791Z,10.62
2017-09-25T04:50:45.244Z,10.60
2017-09-25T04:53:13.006Z,10.57
2017-09-25T04:55:40.867Z,10.61
2017-09-25T04:58:11.066Z,10.56
2017-09-25T05:00:38.784Z,10.46
2017-09-25T05:03:06.530Z,10.51
2017-09-25T05:05:34.285Z,10.54
2017-09-25T05:08:01.951Z,10.40
2017-09-25T05:10:29.691Z,10.30
2017-09-25T05:12:57.433Z,10.27
2017-09-25T05:15:25.156Z,10.20
2017-09-25T05:17:52.975Z,10.13
2017-09-25T05:20:20.679Z,10.12
2017-09-25T05:22:48.432Z,10.12
2017-09-25T05:25:16.137Z,10.15
2017-09-25T05:27:43.884Z,10.29
2017-09-25T05:30:11.702Z,10.31
2017-09-25T05:32:39.465Z,10.19
2017-09-25T05:35:07.166Z,10.03
2017-09-25T05:37:34.896Z,10.00
2017-09-25T05:40:02.588Z,9.91
2017-09-25T05:42:30.396Z,10.00
2017-09-25T05:44:58.087Z,10.14
2017-09-25T05:47:25.800Z,10.20
2017-09-25T05:49:53.508Z,10.26
2017-09-25T05:52:21.285Z,10.36
2017-09-25T05:54:49.176Z,10.32
2017-09-25T05:57:17.241Z,10.34
2017-09-25T05:59:44.938Z,10.28
2017-09-25T06:02:12.674Z,10.30
2017-09-25T06:04:40.427Z,10.39
2017-09-25T06:07:08.220Z,10.48
2017-09-25T06:09:35.893Z,10.52
2017-09-25T06:12:03.678Z,10.53
2017-09-25T06:14:31.529Z,10.59
2017-09-25T06:16:59.360Z,10.65
2017-09-25T06:19:27.072Z,10.66
2017-09-25T06:21:54.771Z,10.74
2017-09-25T06:24:22.519Z,10.58
2017-09-25T06:26:50.222Z,10.51
2017-09-25T06:29:18.497Z,10.49
2017-09-25T06:31:46.283Z,10.43
2017-09-25T06:34:13.971Z,10.48
2017-09-25T06:36:42.006Z,10.58
2017-09-25T06:39:10.071Z,10.54
2017-09-25T06:41:37.851Z,10.45
2017-09-25T06:44:05.564Z,10.39
2017-09-25T06:46:33.436Z,10.53
2017-09-25T06:49:01.237Z,10.46
2017-09-25T06:51:28.906Z,10.36
2017-09-25T06:53:57.602Z,10.54
2017-09-25T06:56:25.382Z,10.33
2017-09-25T06:58:53.731Z,10.37
2017-09-25T07:01:21.469Z,10.46
2017-09-25T07:03:49.221Z,10.48
2017-09-25T07:06:16.951Z,10.57
2017-09-25T07:08:44.627Z,10.62
2017-09-25T07:11:12.396Z,10.56
2017-09-25T07:13:40.144Z,10.63
2017-09-25T07:16:07.904Z,10.57
2017-09-25T07:18:35.748Z,10.64
2017-09-25T07:21:03.559Z,10.64
2017-09-25T07:23:31.245Z,10.54
2017-09-25T07:25:58.967Z,10.43
2017-09-25T07:28:26.708Z,10.46
2017-09-25T07:30:54.496Z,10.51
2017-09-25T07:33:22.182Z,10.53
2017-09-25T07:35:49.925Z,10.59
2017-09-25T07:38:17.646Z,10.62
2017-09-25T07:40:45.414Z,10.73
2017-09-25T07:43:13.162Z,10.52
2017-09-25T07:45:40.882Z,10.65
2017-09-25T07:48:08.631Z,10.83
2017-09-25T07:50:36.355Z,10.91
2017-09-25T07:53:04.238Z,11.00
2017-09-25T07:55:31.952Z,11.15
2017-09-25T07:57:59.654Z,11.26
2017-09-25T08:00:27.414Z,11.35
2017-09-25T08:02:55.176Z,11.54
2017-09-25T08:05:22.889Z,12.08
2017-09-25T08:07:50.667Z,12.47
2017-09-25T08:10:18.380Z,13.22
2017-09-25T08:12:46.137Z,13.40
2017-09-25T08:15:14.769Z,13.14
2017-09-25T08:17:42.472Z,13.69
2017-09-25T08:20:10.188Z,13.61
2017-09-25T08:22:37.958Z,14.01
2017-09-25T08:25:05.698Z,13.63
2017-09-25T08:27:33.416Z,13.34
2017-09-25T08:30:01.188Z,13.68
2017-09-25T08:32:28.895Z,13.63
2017-09-25T08:34:56.663Z,14.52
2017-09-25T08:37:24.436Z,14.44
2017-09-25T08:39:52.195Z,14.15
2017-09-25T08:42:19.900Z,14.35
2017-09-25T08:44:47.675Z,15.12
2017-09-25T08:47:15.351Z,15.69
2017-09-25T08:49:43.102Z,16.59
2017-09-25T08:52:10.840Z,16.66
2017-09-25T08:54:38.785Z,16.06
2017-09-25T08:57:06.535Z,15.13
2017-09-25T08:59:34.233Z,15.97
2017-09-25T09:02:01.972Z,16.13
2017-09-25T09:04:29.702Z,16.20
2017-09-25T09:06:57.465Z,16.16
2017-09-25T09:09:25.188Z,16.28
2017-09-25T09:11:52.971Z,16.07
2017-09-25T09:14:20.759Z,16.10
2017-09-25T09:16:48.453Z,16.61
2017-09-25T09:19:16.157Z,15.97
2017-09-25T09:21:43.943Z,16.88
2017-09-25T09:24:11.656Z,16.51
2017-09-25T09:26:39.406Z,16.47
2017-09-25T09:29:07.140Z,16.49
2017-09-25T09:31:34.878Z,15.82
2017-09-25T09:34:02.598Z,16.42
2017-09-25T09:36:30.391Z,16.57
2017-09-25T09:38:58.114Z,16.75
2017-09-25T09:41:25.791Z,15.83
2017-09-25T09:43:53.533Z,15.54
2017-09-25T09:46:21.230Z,16.11
2017-09-25T09:48:48.895Z,16.18
2017-09-25T09:51:16.639Z,16.51
2017-09-25T09:53:44.367Z,16.67
2017-09-25T09:56:12.104Z,15.95
2017-09-25T09:58:39.904Z,15.43
2017-09-25T10:01:07.614Z,15.79
2017-09-25T10:03:35.361Z,15.90
2017-09-25T10:06:03.304Z,15.76
2017-09-25T10:08:31.074Z,15.39
2017-09-25T10:10:59.717Z,15.05
2017-09-25T10:13:27.473Z,15.37
2017-09-25T10:15:55.158Z,15.61
2017-09-25T10:18:22.919Z,15.16
2017-09-25T10:20:50.628Z,15.59
2017-09-25T10:23:18.395Z,15.58
2017-09-25T10:25:46.089Z,15.80
2017-09-25T10:28:13.811Z,15.86
2017-09-25T10:30:41.575Z,15.99
2017-09-25T10:33:09.257Z,16.02
2017-09-25T10:35:37.041Z,16.52
2017-09-25T10:38:04.736Z,16.66
2017-09-25T10:40:32.432Z,16.59
2017-09-25T10:43:00.167Z,16.49
2017-09-25T10:45:27.995Z,16.38
2017-09-25T10:47:55.838Z,16.22
2017-09-25T10:50:23.576Z,16.60
2017-09-25T10:52:51.343Z,16.82
2017-09-25T10:55:19.294Z,17.05
2017-09-25T10:57:47.117Z,17.04
2017-09-25T11:00:15.189Z,16.93
2017-09-25T11:02:42.917Z,16.98
2017-09-25T11:05:10.670Z,17.08
2017-09-25T11:07:38.415Z,17.00
2017-09-25T11:10:06.176Z,17.17
2017-09-25T11:12:33.894Z,17.25
2017-09-25T11:15:01.891Z,17.32
2017-09-25T11:17:29.660Z,17.80
2017-09-25T11:19:57.447Z,17.82
2017-09-25T11:22:25.198Z,17.60
2017-09-25T11:24:53.234Z,17.59
2017-09-25T11:27:20.992Z,17.64
2017-09-25T11:29:48.700Z,17.72
2017-09-25T11:32:16.469Z,17.57
2017-09-25T11:34:44.291Z,17.57
2017-09-25T11:37:11.999Z,17.59
2017-09-25T11:39:39.804Z,17.53
2017-09-25T11:42:07.581Z,17.39
2017-09-25T11:44:35.422Z,17.61
2017-09-25T11:47:03.211Z,17.76
2017-09-25T11:49:30.972Z,17.63
2017-09-25T11:51:58.836Z,17.94
2017-09-25T11:54:26.654Z,17.80
2017-09-25T11:56:54.488Z,17.29
2017-09-25T11:59:22.292Z,17.56
2017-09-25T12:01:50.282Z,17.58
2017-09-25T12:04:17.989Z,17.75
2017-09-25T12:06:45.783Z,17.73
2017-09-25T12:09:13.514Z,17.73
2017-09-25T12:11:41.305Z,17.79
2017-09-25T12:14:09.090Z,17.92
2017-09-25T12:16:36.814Z,17.65
2017-09-25T12:19:04.619Z,18.29
2017-09-25T12:21:32.366Z,17.89
2017-09-25T12:24:00.151Z,18.06
2017-09-25T12:26:27.934Z,17.56
2017-09-25T12:28:55.708Z,17.60
2017-09-25T12:31:23.488Z,17.59
2017-09-25T12:33:51.260Z,17.26
2017-09-25T12:36:19.159Z,17.31
2017-09-25T12:38:46.880Z,17.42
2017-09-25T12:41:14.649Z,17.64
2017-09-25T12:43:42.390Z,17.77
2017-09-25T12:46:10.542Z,17.48
2017-09-25T12:48:38.468Z,17.59
2017-09-25T12:51:06.248Z,17.54
2017-09-25T12:53:34.559Z,17.24
2017-09-25T12:56:02.550Z,17.42
2017-09-25T12:58:30.963Z,17.41
2017-09-25T13:00:59.282Z,17.55
2017-09-25T13:03:27.094Z,17.59
2017-09-25T13:05:54.876Z,17.71
2017-09-25T13:08:23.118Z,17.71
2017-09-25T13:10:51.057Z,17.76
2017-09-25T13:13:18.843Z,17.62
2017-09-25T13:15:46.615Z,17.68
2017-09-25T13:18:14.376Z,17.63
2017-09-25T13:20:42.661Z,17.71
2017-09-25T13:23:10.405Z,17.78
2017-09-25T13:25:38.217Z,17.65
2017-09-25T13:28:05.973Z,17.59
2017-09-25T13:30:33.742Z,17.63
2017-09-25T13:33:01.467Z,17.62
2017-09-25T13:35:29.244Z,17.50
2017-09-25T13:37:57.012Z,17.42
2017-09-25T13:40:24.788Z,17.32
2017-09-25T13:42:52.848Z,17.21
2017-09-25T13:45:20.689Z,17.14
2017-09-25T13:47:48.544Z,17.13
2017-09-25T13:50:16.253Z,17.21
2017-09-25T13:52:44.008Z,17.09
2017-09-25T13:55:11.813Z,17.02
2017-09-25T13:57:40.773Z,16.87
2017-09-25T14:02:41.374Z,16.94
2017-09-25T14:05:09.871Z,16.90
2017-09-25T14:07:37.661Z,16.97
2017-09-25T14:10:05.431Z,16.89
2017-09-25T14:12:33.141Z,16.85
2017-09-25T14:15:00.961Z,16.69
2017-09-25T14:17:29.255Z,16.64
2017-09-25T14:19:57.108Z,16.58
2017-09-25T14:22:24.808Z,16.53
2017-09-25T14:24:52.603Z,16.55
2017-09-25T14:27:20.362Z,16.60
2017-09-25T14:29:48.110Z,16.62
2017-09-25T14:32:15.893Z,16.62
2017-09-25T14:34:44.499Z,16.58
2017-09-25T14:37:12.285Z,16.54
2017-09-25T14:39:40.010Z,16.52
2017-09-25T14:42:07.797Z,16.60
2017-09-25T14:44:35.624Z,16.58
2017-09-25T14:47:03.424Z,16.44
2017-09-25T14:49:31.263Z,16.43
2017-09-25T14:52:00.042Z,16.38
2017-09-25T14:54:27.773Z,16.35
2017-09-25T14:56:55.595Z,16.32
2017-09-25T14:59:23.336Z,16.27
2017-09-25T15:01:51.058Z,16.39
2017-09-25T15:04:18.911Z,16.48
2017-09-25T15:06:46.778Z,16.50
2017-09-25T15:09:14.674Z,16.39
2017-09-25T15:11:43.003Z,16.31
2017-09-25T15:14:10.758Z,16.18
2017-09-25T15:16:38.620Z,16.23
2017-09-25T15:19:06.399Z,16.14
2017-09-25T15:21:34.180Z,16.09
2017-09-25T15:24:01.952Z,16.14
2017-09-25T15:26:29.703Z,16.24
2017-09-25T15:28:57.497Z,16.09
2017-09-25T15:31:25.706Z,16.06
2017-09-25T15:33:54.606Z,15.93
2017-09-25T15:36:22.450Z,15.95
2017-09-25T15:38:50.353Z,15.92
2017-09-25T15:41:18.123Z,15.91
2017-09-25T15:43:46.125Z,15.92
2017-09-25T15:46:13.990Z,15.89
2017-09-25T15:48:43.202Z,15.93
2017-09-25T15:51:11.053Z,15.83
2017-09-25T15:53:38.947Z,15.84
2017-09-25T15:56:07.191Z,15.65
2017-09-25T15:58:35.556Z,15.54
2017-09-25T16:01:03.483Z,15.49
2017-09-25T16:03:31.251Z,15.45
2017-09-25T16:05:59.008Z,15.38
2017-09-25T16:08:27.058Z,15.40
2017-09-25T16:10:54.797Z,15.42
2017-09-25T16:13:22.707Z,15.47
2017-09-25T16:15:50.491Z,15.35
2017-09-25T16:18:18.334Z,15.19
2017-09-25T16:20:46.275Z,15.21
2017-09-25T16:23:14.329Z,15.11
2017-09-25T16:25:42.108Z,15.07
2017-09-25T16:28:09.865Z,15.08
2017-09-25T16:30:38.111Z,15.05
2017-09-25T16:33:06.228Z,14.91
2017-09-25T16:35:33.991Z,14.86
2017-09-25T16:38:01.684Z,14.86
2017-09-25T16:40:29.560Z,14.81
2017-09-25T16:42:57.258Z,14.77
2017-09-25T16:45:25.995Z,14.68
2017-09-25T16:47:54.825Z,14.69
2017-09-25T16:50:22.520Z,14.68
2017-09-25T16:52:50.303Z,14.53
2017-09-25T16:55:18.112Z,14.32
2017-09-25T16:57:45.865Z,14.30
2017-09-25T17:00:13.682Z,14.32
2017-09-25T17:02:41.499Z,14.28
2017-09-25T17:05:09.200Z,14.31
2017-09-25T17:07:36.948Z,14.29
2017-09-25T17:10:04.695Z,14.22
2017-09-25T17:12:32.484Z,14.17
2017-09-25T17:15:00.302Z,14.07
2017-09-25T17:17:28.019Z,13.93
2017-09-25T17:19:55.742Z,13.92
2017-09-25T17:22:23.525Z,13.90
2017-09-25T17:24:51.263Z,13.88
2017-09-25T17:27:19.121Z,13.78
2017-09-25T17:29:46.877Z,13.83
2017-09-25T17:32:14.672Z,13.73
2017-09-25T17:34:42.455Z,13.71
2017-09-25T17:37:11.704Z,13.76
2017-09-25T17:39:39.488Z,13.76
2017-09-25T17:42:07.208Z,13.73
2017-09-25T17:44:38.502Z,13.63
2017-09-25T17:47:06.241Z,13.70
2017-09-25T17:49:34.002Z,13.70
2017-09-25T17:52:01.831Z,13.66
2017-09-25T17:54:30.165Z,13.67
2017-09-25T17:56:57.966Z,13.69
2017-09-25T17:59:27.611Z,13.76
2017-09-25T18:01:55.368Z,13.68
2017-09-25T18:04:23.057Z,13.63
2017-09-25T18:06:51.003Z,13.60
2017-09-25T18:09:18.962Z,13.62
2017-09-25T18:11:46.871Z,13.58
2017-09-25T18:14:14.655Z,13.58
2017-09-25T18:16:42.401Z,13.59
2017-09-25T18:19:11.357Z,13.64
2017-09-25T18:21:39.625Z,13.61
2017-09-25T18:24:07.448Z,13.52
2017-09-25T18:26:35.198Z,13.50
2017-09-25T18:29:03.025Z,13.47
2017-09-25T18:31:30.734Z,13.42
2017-09-25T18:33:58.544Z,13.41
2017-09-25T18:36:26.613Z,13.36
2017-09-25T18:38:54.435Z,13.29
2017-09-25T18:41:22.182Z,13.33
2017-09-25T18:43:49.955Z,13.34
2017-09-25T18:46:18.990Z,13.25
2017-09-25T18:48:46.773Z,13.26
2017-09-25T18:51:14.783Z,13.24
2017-09-25T18:53:42.635Z,13.24
2017-09-25T18:56:10.642Z,13.19
2017-09-25T18:58:38.539Z,13.09
2017-09-25T19:01:06.340Z,13.15
2017-09-25T19:03:34.143Z,13.10
2017-09-25T19:06:02.390Z,13.15
2017-09-25T19:08:31.137Z,13.05
2017-09-25T19:10:58.915Z,12.94
2017-09-25T19:13:27.069Z,13.00
2017-09-25T19:15:54.896Z,13.07
2017-09-25T19:18:23.865Z,13.09
2017-09-25T19:20:51.843Z,12.98
2017-09-25T19:23:20.392Z,12.89
2017-09-25T19:25:48.213Z,12.88
2017-09-25T19:28:16.089Z,12.89
2017-09-25T19:30:45.221Z,12.94
2017-09-25T19:33:13.046Z,13.05
2017-09-25T19:35:40.841Z,12.92
2017-09-25T19:38:08.761Z,12.72
2017-09-25T19:40:36.571Z,12.71
2017-09-25T19:43:04.443Z,12.77
2017-09-25T19:45:32.319Z,12.87
2017-09-25T19:48:00.629Z,12.79
2017-09-25T19:50:28.453Z,12.81
2017-09-25T19:52:56.458Z,12.81
2017-09-25T19:55:25.527Z,12.80
2017-09-25T19:57:53.368Z,12.81
2017-09-25T20:00:21.419Z,12.76
2017-09-25T20:02:49.257Z,12.74
2017-09-25T20:05:18.120Z,12.69
2017-09-25T20:07:46.039Z,12.67
2017-09-25T20:13:04.410Z,12.61
2017-09-25T20:18:39.042Z,12.57
2017-09-25T20:21:06.776Z,12.54
2017-09-25T20:23:34.580Z,12.63
2017-09-25T20:26:02.384Z,12.59
2017-09-25T20:28:30.168Z,12.57
2017-09-25T20:30:57.935Z,12.48
2017-09-25T20:33:25.778Z,12.41
2017-09-25T20:35:54.945Z,12.29
2017-09-25T20:38:22.883Z,12.34
2017-09-25T20:41:00.639Z,12.26
2017-09-25T20:43:31.254Z,12.28
2017-09-25T20:45:59.056Z,12.12
2017-09-25T20:48:28.541Z,12.21
2017-09-25T20:50:56.473Z,12.21
2017-09-25T20:53:24.748Z,12.22
2017-09-25T20:55:52.521Z,12.22
2017-09-25T20:58:21.105Z,12.19
2017-09-25T21:00:48.899Z,12.19
2017-09-25T21:03:16.596Z,12.05
2017-09-25T21:05:44.373Z,12.01
2017-09-25T21:08:12.120Z,12.03
2017-09-25T21:10:39.987Z,12.02
2017-09-25T21:13:08.048Z,11.91
2017-09-25T21:15:35.883Z,11.90
2017-09-25T21:18:03.707Z,11.87
2017-09-25T21:20:31.425Z,11.98
2017-09-25T21:22:59.252Z,11.97
2017-09-25T21:25:27.029Z,11.94
2017-09-25T21:27:55.110Z,11.84
2017-09-25T21:30:22.844Z,11.86
2017-09-25T21:32:50.554Z,11.76
2017-09-25T21:35:18.471Z,11.97
2017-09-25T21:37:46.186Z,11.84
2017-09-25T21:40:13.936Z,11.70
2017-09-25T21:42:41.712Z,11.70
2017-09-25T21:45:09.436Z,11.70
2017-09-25T21:47:37.229Z,11.71
2017-09-25T21:50:04.953Z,11.60
2017-09-25T21:52:32.706Z,11.54
2017-09-25T21:55:00.586Z,11.58
2017-09-25T21:57:28.286Z,11.60
2017-09-25T21:59:55.992Z,11.61
2017-09-25T22:02:23.963Z,11.65
2017-09-25T22:04:51.700Z,11.61
2017-09-25T22:07:19.559Z,11.59
2017-09-25T22:09:47.431Z,11.64
2017-09-25T22:12:15.290Z,11.60
2017-09-25T22:14:43.056Z,11.62
2017-09-25T22:17:10.758Z,11.55
2017-09-25T22:19:38.531Z,11.64
2017-09-25T22:22:06.245Z,11.50
2017-09-25T22:24:34.021Z,11.49
2017-09-25T22:27:01.791Z,11.57
2017-09-25T22:29:29.464Z,11.65
2017-09-25T22:31:57.681Z,11.68
2017-09-25T22:34:25.536Z,11.73
2017-09-25T22:36:53.260Z,11.71
2017-09-25T22:39:21.017Z,11.69
2017-09-25T22:41:49.025Z,11.64
2017-09-25T22:47:19.393Z,11.68
2017-09-25T22:49:47.142Z,11.70
2017-09-25T22:52:14.941Z,11.70
2017-09-25T22:54:42.759Z,11.61
2017-09-25T22:57:10.509Z,11.62
2017-09-25T22:59:38.349Z,11.71
2017-09-25T23:02:06.106Z,11.74
2017-09-25T23:04:33.907Z,11.67
2017-09-25T23:07:01.674Z,11.70
2017-09-25T23:09:34.869Z,11.68
2017-09-25T23:12:02.618Z,11.72
2017-09-25T23:14:30.377Z,11.70
2017-09-25T23:16:58.076Z,11.72
2017-09-25T23:19:25.803Z,11.72
2017-09-25T23:21:53.510Z,11.75
2017-09-25T23:24:21.306Z,11.79
2017-09-25T23:26:49.056Z,11.78
2017-09-25T23:29:16.854Z,11.76
2017-09-25T23:31:45.504Z,11.73
2017-09-25T23:34:14.156Z,11.67
2017-09-25T23:36:42.658Z,11.69
2017-09-25T23:39:11.136Z,11.69
2017-09-25T23:41:39.345Z,11.63
2017-09-25T23:44:10.748Z,11.55
2017-09-25T23:46:39.432Z,11.53
2017-09-25T23:49:08.289Z,11.51
2017-09-25T23:51:36.018Z,11.49
2017-09-25T23:54:04.284Z,11.35
2017-09-25T23:56:33.039Z,11.24
2017-09-25T23:59:00.746Z,11.31
